Time;durP1;ratioP1;P1;durP2;ratioP2;P2;SDS_P1;SDS_P2;PMS_P1;PMS_P2;Temp;Humidity;BMP_temperature;BMP_pressure;BME280_temperature;BME280_humidity;BME280_pressure;Samples;Min_cycle;Max_cycle;Signal;HPM_P1;HPM_P2
2022/04/27 00:00:57;;;;;;;;;;;;;;;;;;5096814;28;19915;-77
2022/04/27 00:03:23;;;;;;;;;;;;;;;;;;5114117;28;20275;-76
2022/04/27 00:05:49;;;;;;;;;;;;;;;;;;5115056;28;20010;-77
2022/04/27 00:08:15;;;;;;;;;;;;;;;;;;5114852;28;20006;-76
2022/04/27 00:10:41;;;;;;;;;;;;;;;;;;5113730;28;19915;-77
2022/04/27 00:13:07;;;;;;;;;;;;;;;;;;5114504;28;20282;-77
2022/04/27 00:15:33;;;;;;;;;;;;;;;;;;5095900;28;19963;-77
2022/04/27 00:17:59;;;;;;;;;;;;;;;;;;5114741;28;19973;-77
2022/04/27 00:20:24;;;;;;;;;;;;;;;;;;5114083;28;19914;-76
2022/04/27 00:22:50;;;;;;;;;;;;;;;;;;5096198;28;20359;-77
2022/04/27 00:25:16;;;;;;;;;;;;;;;;;;5114544;28;20014;-77
2022/04/27 00:27:42;;;;;;;;;;;;;;;;;;5113323;28;19920;-77
2022/04/27 00:30:08;;;;;;;;;;;;;;;;;;5114749;28;19911;-76
2022/04/27 00:32:34;;;;;;;;;;;;;;;;;;5114071;28;19914;-77
2022/04/27 00:35:00;;;;;;;;;;;;;;;;;;5114157;28;19995;-76
2022/04/27 00:37:26;;;;;;;;;;;;;;;;;;5113707;28;20367;-76
2022/04/27 00:39:52;;;;;;;;;;;;;;;;;;5114236;28;19908;-76
2022/04/27 00:42:18;;;;;;;;;;;;;;;;;;5114184;28;19919;-77
2022/04/27 00:44:44;;;;;;;;;;;;;;;;;;5113285;28;20263;-76
2022/04/27 00:47:10;;;;;;;;;;;;;;;;;;5114084;28;19961;-76
2022/04/27 00:49:36;;;;;;;;;;;;;;;;;;5113158;28;19912;-76
2022/04/27 00:52:01;;;;;;;;;;;;;;;;;;5114075;28;19908;-77
2022/04/27 00:54:27;;;;;;;;;;;;;;;;;;5113413;28;20020;-76
2022/04/27 00:56:53;;;;;;;;;;;;;;;;;;5114189;28;19981;-77
2022/04/27 00:59:19;;;;;;;;;;;;;;;;;;5095679;28;19908;-77
2022/04/27 01:01:45;;;;;;;;;;;;;;;;;;5113263;28;20248;-76
2022/04/27 01:04:11;;;;;;;;;;;;;;;;;;5113827;28;19908;-77
2022/04/27 01:06:37;;;;;;;;;;;;;;;;;;5113262;28;19908;-76
2022/04/27 01:09:03;;;;;;;;;;;;;;;;;;5113832;28;20280;-77
2022/04/27 01:11:29;;;;;;;;;;;;;;;;;;5095003;28;19952;-76
2022/04/27 01:13:55;;;;;;;;;;;;;;;;;;5113793;28;20274;-77
2022/04/27 01:16:20;;;;;;;;;;;;;;;;;;5095463;28;20018;-77
2022/04/27 01:18:46;;;;;;;;;;;;;;;;;;5113041;28;19912;-77
2022/04/27 01:21:12;;;;;;;;;;;;;;;;;;5113357;28;19916;-76
2022/04/27 01:23:39;;;;;;;;;;;;;;;;;;5112324;28;19908;-76
2022/04/27 01:26:05;;;;;;;;;;;;;;;;;;5095011;28;19916;-77
2022/04/27 01:28:31;;;;;;;;;;;;;;;;;;5113009;28;20423;-76
2022/04/27 01:30:57;;;;;;;;;;;;;;;;;;5112310;28;19942;-77
2022/04/27 01:33:23;;;;;;;;;;;;;;;;;;5111696;28;19908;-77
2022/04/27 01:35:49;;;;;;;;;;;;;;;;;;5094633;28;20060;-77
2022/04/27 01:38:16;;;;;;;;;;;;;;;;;;5113433;28;20256;-77
2022/04/27 01:40:42;;;;;;;;;;;;;;;;;;5112770;28;19962;-77
2022/04/27 01:43:08;;;;;;;;;;;;;;;;;;5113461;28;20325;-77
2022/04/27 01:45:34;;;;;;;;;;;;;;;;;;5112774;28;19907;-77
2022/04/27 01:47:59;;;;;;;;;;;7.50;91.90;;;;;;5113323;28;20261;-77
2022/04/27 01:50:25;;;;;;;;;;;7.30;92.60;;;;;;5113434;28;19914;-77
2022/04/27 01:55:35;;;;;;;;;;;7.30;97.90;;;;;;5112896;28;19922;-77
2022/04/27 01:58:00;;;;;;;;;;;6.90;98.00;;;;;;5095194;28;19908;-77
2022/04/27 02:00:26;;;;;;;;;;;;;;;;;;5095059;28;19908;-77
2022/04/27 02:02:52;;;;;;;;;;;;;;;;;;5112508;28;20032;-77
2022/04/27 02:05:18;;;;;;;;;;;;;;;;;;5097633;28;20283;-75
2022/04/27 02:07:44;;;;;;;;;;;;;;;;;;5091946;28;19908;-76
2022/04/27 02:10:10;;;;;;;;;;;;;;;;;;5074627;28;20382;-77
2022/04/27 02:12:35;;;;;;;;;;;;;;;;;;5092157;28;19915;-77
2022/04/27 02:15:02;;;;;;;;;;;;;;;;;;5092844;28;19909;-77
2022/04/27 02:17:28;;;;;;;;;;;;;;;;;;5092704;28;19915;-77
2022/04/27 02:19:53;;;;;;;;;;;;;;;;;;5092109;28;20338;-76
2022/04/27 02:22:19;;;;;;;;;;;;;;;;;;5074411;28;19946;-76
2022/04/27 02:24:45;;;;;;;;;;;;;;;;;;5073970;28;19959;-77
2022/04/27 02:27:11;;;;;;;;;;;;;;;;;;5092752;28;19993;-76
2022/04/27 02:29:37;;;;;;;;;;;;;;;;;;5091980;28;19991;-76
2022/04/27 02:32:03;;;;;;;;;;;;;;;;;;5074462;28;19908;-77
2022/04/27 02:34:29;;;;;;;;;;;;;;;;;;5095036;28;19934;-77
2022/04/27 02:36:55;;;;;;;;;;;;;;;;;;5077175;28;19961;-76
2022/04/27 02:39:20;;;;;;;;;;;;;;;;;;5096214;28;19913;-76
2022/04/27 02:41:46;;;;;;;;;;;;;;;;;;5095496;28;20249;-76
2022/04/27 02:44:12;;;;;;;;;;;;;;;;;;5096065;28;19987;-76
2022/04/27 02:46:38;;;;;;;;;;;;;;;;;;5095509;28;19908;-76
2022/04/27 02:52:02;;;;;;;;;;;;;;;;;;5081673;28;19915;-76
2022/04/27 02:54:28;;;;;;;;;;;;;;;;;;5116314;28;19907;-76
2022/04/27 02:56:54;;;;;;;;;;;;;;;;;;5115330;28;19965;-76
2022/04/27 02:59:20;;;;;;;;;;;;;;;;;;5100696;28;19961;-76
2022/04/27 03:01:46;;;;;;;;;;;;;;;;;;5094870;28;19916;-76
2022/04/27 03:04:12;;;;;;;;;;;;;;;;;;5103313;28;20004;-76
2022/04/27 03:06:38;;;;;;;;;;;;;;;;;;5094862;28;20003;-76
2022/04/27 03:09:04;;;;;;;;;;;;;;;;;;5095652;28;19908;-76
2022/04/27 03:11:30;;;;;;;;;;;;;;;;;;5095613;28;19912;-76
2022/04/27 03:13:56;;;;;;;;;;;;;;;;;;5094975;28;19999;-76
2022/04/27 03:16:22;;;;;;;;;;;;;;;;;;5094234;28;20007;-76
2022/04/27 03:18:48;;;;;;;;;;;;;;;;;;5113354;28;19908;-76
2022/04/27 03:21:14;;;;;;;;;;;;;;;;;;5115449;28;19919;-76
2022/04/27 03:23:40;;;;;;;;;;;;;;;;;;5115180;28;19999;-76
2022/04/27 03:26:06;;;;;;;;;;;;;;;;;;5115645;28;19912;-77
2022/04/27 03:28:31;;;;;;;;;;;;;;;;;;5115746;28;19915;-76
2022/04/27 03:30:57;;;;;;;;;;;;;;;;;;5096690;28;20419;-76
2022/04/27 03:33:23;;;;;;;;;;;;;;;;;;5084459;28;19915;-76
2022/04/27 03:35:49;;;;;;;;;;;;;;;;;;5094529;28;19944;-76
2022/04/27 03:38:15;;;;;;;;;;;;;;;;;;5095073;28;20012;-76
2022/04/27 03:40:41;;;;;;;;;;;;;;;;;;5094429;28;19914;-76
2022/04/27 03:43:07;;;;;;;;;;;;;;;;;;5095007;28;19917;-76
2022/04/27 03:45:33;;;;;;;;;;;;;;;;;;5094079;28;19962;-76
2022/04/27 03:47:59;;;;;;;;;;;;;;;;;;5094598;28;20374;-76
2022/04/27 03:50:25;;;;;;;;;;;;;;;;;;5094891;28;19908;-76
2022/04/27 03:52:51;;;;;;;;;;;;;;;;;;5094258;28;19999;-76
2022/04/27 03:55:17;;;;;;;;;;;;;;;;;;5094625;28;19922;-76
2022/04/27 03:57:43;;;;;;;;;;;;;;;;;;5094070;28;20343;-76
2022/04/27 04:00:09;;;;;;;;;;;;;;;;;;5094346;28;19922;-76
2022/04/27 04:02:36;;;;;;;;;;;;;;;;;;5094618;28;19924;-76
2022/04/27 04:05:02;;;;;;;;;;;;;;;;;;5094502;28;19915;-76
2022/04/27 04:07:28;;;;;;;;;;;;;;;;;;5094453;28;19908;-76
2022/04/27 04:09:54;;;;;;;;;;;;;;;;;;5093811;28;19915;-76
2022/04/27 04:12:20;;;;;;;;;;;;;;;;;;5094420;28;20326;-76
2022/04/27 04:14:45;;;;;;;;;;;6.90;99.90;;;;;;5093805;28;19957;-76
2022/04/27 04:17:12;;;;;;;;;;;;;;;;;;5094319;28;19908;-76
2022/04/27 04:19:39;;;;;;;;;;;;;;;;;;5076249;28;20008;-77
2022/04/27 04:22:06;;;;;;;;;;;;;;;;;;5094178;28;19986;-76
2022/04/27 04:24:32;;;;;;;;;;;;;;;;;;5094168;28;19915;-76
2022/04/27 04:29:43;;;;;;;;;;;;;;;;;;5073076;28;19962;-74
2022/04/27 04:32:09;;;;;;;;;;;;;;;;;;5072434;28;19913;-74
2022/04/27 04:34:34;;;;;;;;;;;;;;;;;;5072467;28;19913;-75
2022/04/27 04:37:01;;;;;;;;;;;;;;;;;;5073093;28;19927;-75
2022/04/27 04:39:27;;;;;;;;;;;;;;;;;;5073616;28;19934;-75
2022/04/27 04:41:53;;;;;;;;;;;;;;;;;;5072906;28;19917;-76
2022/04/27 04:44:19;;;;;;;;;;;;;;;;;;5073541;28;20229;-77
2022/04/27 04:46:45;;;;;;;;;;;;;;;;;;5086764;28;19912;-75
2022/04/27 04:49:11;;;;;;;;;;;;;;;;;;5093931;28;19949;-75
2022/04/27 04:51:37;;;;;;;;;;;;;;;;;;5093436;28;19999;-76
2022/04/27 04:54:03;;;;;;;;;;;;;;;;;;5093151;28;20374;-75
2022/04/27 04:56:29;;;;;;;;;;;;;;;;;;5091978;28;19923;-76
2022/04/27 04:58:54;;;;;;;;;;;;;;;;;;5091819;28;20352;-75
2022/04/27 05:01:20;;;;;;;;;;;;;;;;;;5093515;28;19945;-75
2022/04/27 05:03:46;;;;;;;;;;;;;;;;;;5093207;28;19908;-75
2022/04/27 05:06:12;;;;;;;;;;;;;;;;;;5090330;28;19912;-75
2022/04/27 05:08:38;;;;;;;;;;;;;;;;;;5093465;28;19915;-75
2022/04/27 05:11:04;;;;;;;;;;;;;;;;;;5091535;28;19908;-75
2022/04/27 05:13:30;;;;;;;;;;;;;;;;;;5093066;28;20049;-75
2022/04/27 05:15:56;;;;;;;;;;;;;;;;;;5089326;28;19912;-75
2022/04/27 05:18:22;;;;;;;;;;;;;;;;;;5093323;28;19908;-75
2022/04/27 05:20:49;;;;;;;;;;;;;;;;;;5092971;28;19916;-74
2022/04/27 05:23:16;;;;;;;;;;;;;;;;;;5093277;28;19915;-75
2022/04/27 05:25:41;;;;;;;;;;;5.40;99.90;;;;;;5093105;28;19916;-75
2022/04/27 05:28:07;;;;;;;;;;;;;;;;;;5131330;27;19927;-75
2022/04/27 05:33:17;;;;;;;;;;;;;;;;;;5133760;27;19990;-75
2022/04/27 05:35:43;;;;;;;;;;;;;;;;;;5114860;28;19943;-74
2022/04/27 05:38:09;;;;;;;;;;;;;;;;;;5115503;28;19908;-75
2022/04/27 05:40:35;;;;;;;;;;;;;;;;;;5134009;28;19908;-75
2022/04/27 05:43:05;;;;;;;;;;;;;;;;;;5133264;28;19958;-75
2022/04/27 05:45:32;;;;;;;;;;;;;;;;;;5133919;28;19950;-76
2022/04/27 05:47:57;;;;;;;;;;;;;;;;;;5133373;28;20366;-75
2022/04/27 05:50:23;;;;;;;;;;;;;;;;;;5133781;28;19908;-74
2022/04/27 05:52:49;;;;;;;;;;;;;;;;;;5119626;28;20342;-74
2022/04/27 05:55:15;;;;;;;;;;;;;;;;;;5113021;28;19916;-75
2022/04/27 05:57:41;;;;;;;;;;;;;;;;;;5113265;28;19912;-76
2022/04/27 06:00:07;;;;;;;;;;;;;;;;;;5112610;28;19908;-74
2022/04/27 06:02:33;;;;;;;;;;;;;;;;;;5113148;28;19916;-74
2022/04/27 06:04:59;;;;;;;;;;;;;;;;;;5112574;28;19954;-75
2022/04/27 06:07:25;;;;;;;;;;;;;;;;;;5113196;28;19933;-75
2022/04/27 06:09:50;;;;;;;;;;;;;;;;;;5095666;28;20362;-77
2022/04/27 06:12:18;;;;;;;;;;;;;;;;;;5107052;28;19943;-77
2022/04/27 06:14:43;;;;;;;;;;;;;;;;;;5106373;28;20333;-75
2022/04/27 06:17:09;;;;;;;;;;;;;;;;;;5116148;28;19907;-76
2022/04/27 06:19:35;;;;;;;;;;;;;;;;;;5116332;27;19908;-76
2022/04/27 06:22:01;;;;;;;;;;;;;;;;;;5102966;28;19980;-74
2022/04/27 06:24:29;;;;;;;;;;;;;;;;;;5106357;28;19914;-75
2022/04/27 06:26:55;;;;;;;;;;;;;;;;;;5104060;28;19972;-76
2022/04/27 06:29:21;;;;;;;;;;;;;;;;;;5107441;28;19998;-75
2022/04/27 06:31:47;;;;;;;;;;;;;;;;;;5079953;28;19915;-71
2022/04/27 06:34:13;;;;;;;;;;;;;;;;;;5105928;28;19951;-75
2022/04/27 06:36:39;;;;;;;;;;;;;;;;;;5109931;28;20003;-75
2022/04/27 06:39:07;;;;;;;;;;;;;;;;;;5094306;28;20295;-75
2022/04/27 06:41:33;;;;;;;;;;;;;;;;;;5109023;28;19927;-75
2022/04/27 06:43:59;;;;;;;;;;;;;;;;;;5115337;28;20347;-75
2022/04/27 06:46:24;;;;;;;;;;;;;;;;;;5105611;28;19919;-77
2022/04/27 06:48:50;;;;;;;;;;;8.40;98.40;;;;;;5114839;28;19967;-71
2022/04/27 06:51:18;;;;;;;;;;;8.20;97.40;;;;;;5113852;28;19912;-74
2022/04/27 06:53:44;;;;;;;;;;;9.00;98.70;;;;;;5101669;28;19918;-80
2022/04/27 06:56:10;;;;;;;;;;;;;;;;;;5108025;28;20363;-75
2022/04/27 06:58:36;;;;;;;;;;;;;;;;;;5106906;28;19966;-77
2022/04/27 07:01:01;;;;;;;;;;;;;;;;;;5110492;28;19908;-76
2022/04/27 07:03:28;;;;;;;;;;;;;;;;;;5107419;28;19934;-75
2022/04/27 07:05:53;;;;;;;;;;;;;;;;;;5109673;28;19988;-73
2022/04/27 07:08:19;;;;;;;;;;;;;;;;;;5103235;28;20356;-73
2022/04/27 07:10:45;;;;;;;;;;;;;;;;;;5094923;28;19908;-79
2022/04/27 07:13:11;;;;;;;;;;;;;;;;;;5094648;28;19916;-78
2022/04/27 07:15:37;;;;;;;;;;;;;;;;;;5095081;28;19908;-78
2022/04/27 07:18:03;;;;;;;;;;;;;;;;;;5094875;28;19908;-78
2022/04/27 07:20:29;;;;;;;;;;;;;;;;;;5093691;28;19908;-77
2022/04/27 07:22:55;;;;;;;;;;;;;;;;;;5094619;28;19966;-76
2022/04/27 07:25:21;;;;;;;;;;;;;;;;;;5099912;28;19923;-74
2022/04/27 07:27:47;;;;;;;;;;;;;;;;;;5098222;28;20444;-77
2022/04/27 07:30:13;;;;;;;;;;;;;;;;;;5116388;28;19908;-77
2022/04/27 07:32:39;;;;;;;;;;;;;;;;;;5116832;28;19912;-75
2022/04/27 07:35:05;;;;;;;;;;;;;;;;;;5112858;28;19913;-77
2022/04/27 07:37:30;;;;;;;;;;;;;;;;;;5105905;28;19912;-81
2022/04/27 07:39:58;;;;;;;;;;;;;;;;;;5103528;28;19965;-88
2022/04/27 07:42:24;;;;;;;;;;;;;;;;;;5109576;28;19952;-76
2022/04/27 07:44:50;;;;;;;;;;;;;;;;;;5114736;28;20364;-73
2022/04/27 07:47:15;;;;;;;;;;;;;;;;;;5115521;28;19966;-76
2022/04/27 07:49:41;;;;;;;;;;;;;;;;;;5115226;28;20275;-76
2022/04/27 07:52:07;;;;;;;;;;;;;;;;;;5114623;28;19908;-76
2022/04/27 07:54:34;;;;;;;;;;;;;;;;;;5114983;28;19908;-75
2022/04/27 07:57:00;;;;;;;;;;;;;;;;;;5096048;28;19916;-75
2022/04/27 07:59:26;;;;;;;;;;;;;;;;;;5115106;28;19976;-76
2022/04/27 08:01:52;;;;;;;;;;;;;;;;;;5114296;28;20014;-75
2022/04/27 08:04:18;;;;;;;;;;;;;;;;;;5114714;28;19939;-76
2022/04/27 08:06:43;;;;;;;;;;;;;;;;;;5114918;28;19914;-76
2022/04/27 08:09:09;;;;;;;;;;;;;;;;;;5096008;28;19915;-76
2022/04/27 08:11:35;;;;;;;;;;;;;;;;;;5114576;28;19977;-76
2022/04/27 08:14:01;;;;;;;;;;;;;;;;;;5114215;28;20017;-75
2022/04/27 08:16:27;;;;;;;;;;;;;;;;;;5114850;28;20002;-75
2022/04/27 08:18:52;;;;;;;;;;;11.40;49.50;;;;;;5114096;28;19912;-75
2022/04/27 08:21:21;;;;;;;;;;;11.50;53.30;;;;;;5114318;28;20276;-76
2022/04/27 08:23:47;;;;;;;;;;;11.40;58.60;;;;;;5114577;28;19908;-75
2022/04/27 08:26:13;;;;;;;;;;;11.20;57.80;;;;;;5113797;28;19983;-75
2022/04/27 08:28:39;;;;;;;;;;;11.50;60.60;;;;;;5114536;28;19996;-75
2022/04/27 08:31:05;;;;;;;;;;;12.10;59.70;;;;;;5113343;28;20374;-75
2022/04/27 08:33:31;;;;;;;;;;;;;;;;;;5114462;28;20379;-75
2022/04/27 08:35:57;;;;;;;;;;;;;;;;;;5113786;28;19915;-75
2022/04/27 08:38:23;;;;;;;;;;;;;;;;;;5114475;28;19907;-75
2022/04/27 08:40:49;;;;;;;;;;;;;;;;;;5095976;28;20313;-75
2022/04/27 08:43:15;;;;;;;;;;;;;;;;;;5113311;28;19944;-76
2022/04/27 08:45:41;;;;;;;;;;;;;;;;;;5114233;28;19912;-75
2022/04/27 08:48:07;;;;;;;;;;;;;;;;;;5113584;28;19914;-75
2022/04/27 08:50:33;;;;;;;;;;;;;;;;;;5114096;28;19966;-75
2022/04/27 08:52:59;;;;;;;;;;;;;;;;;;5113524;28;19976;-76
2022/04/27 08:55:27;;;;;;;;;;;;;;;;;;5095672;28;19916;-76
2022/04/27 08:57:53;;;;;;;;;;;;;;;;;;5113889;28;20356;-75
2022/04/27 09:00:19;;;;;;;;;;;;;;;;;;5095425;28;19915;-76
2022/04/27 09:02:45;;;;;;;;;;;;;;;;;;5113840;28;19963;-75
2022/04/27 09:05:10;;;;;;;;;;;;;;;;;;5112995;28;19939;-76
2022/04/27 09:07:37;;;;;;;;;;;;;;;;;;5113901;28;19908;-75
2022/04/27 09:10:03;;;;;;;;;;;;;;;;;;5113183;28;19915;-75
2022/04/27 09:12:28;;;;;;;;;;;;;;;;;;5113743;28;20309;-75
2022/04/27 09:14:54;;;;;;;;;;;;;;;;;;5113690;28;19947;-72
2022/04/27 09:22:51;;;;;;;;;;;;;;;;;;5113383;28;19923;-75
2022/04/27 09:25:16;;;;;;;;;;;;;;;;;;5112693;28;20420;-75
2022/04/27 09:27:43;;;;;;;;;;;;;;;;;;5113017;28;19919;-75
2022/04/27 09:30:11;;;;;;;;;;;;;;;;;;5112881;28;19915;-75
2022/04/27 09:32:37;;;;;;;;;;;;;;;;;;5113457;28;19907;-75
2022/04/27 09:35:03;;;;;;;;;;;;;;;;;;5112910;28;20442;-75
2022/04/27 09:37:30;;;;;;;;;;;;;;;;;;5095223;28;19914;-75
2022/04/27 09:39:56;;;;;;;;;;;;;;;;;;5112880;28;19934;-72
2022/04/27 09:42:22;;;;;;;;;;;;;;;;;;5113210;27;19919;-75
2022/04/27 09:44:48;;;;;;;;;;;;;;;;;;5116776;28;20371;-75
2022/04/27 09:47:14;;;;;;;;;;;;;;;;;;5117086;28;19919;-75
2022/04/27 09:49:41;;;;;;;;;;;;;;;;;;5117332;28;19929;-75
2022/04/27 09:52:07;;;;;;;;;;;;;;;;;;5108697;28;19919;-70
2022/04/27 09:54:34;;;;;;;;;;;;;;;;;;5112553;28;19912;-70
2022/04/27 09:57:00;;;;;;;;;;;;;;;;;;5107036;28;19968;-72
2022/04/27 09:59:27;;;;;;;;;;;;;;;;;;5116724;28;19961;-68
2022/04/27 10:01:53;;;;;;;;;;;;;;;;;;5116148;28;19942;-73
2022/04/27 10:04:19;;;;;;;;;;;;;;;;;;5118818;28;20355;-69
2022/04/27 10:06:45;;;;;;;;;;;;;;;;;;5091552;28;20331;-72
2022/04/27 10:09:11;;;;;;;;;;;;;;;;;;5096567;28;20006;-70
2022/04/27 10:11:37;;;;;;;;;;;;;;;;;;5095551;28;19908;-70
2022/04/27 10:14:03;;;;;;;;;;;;;;;;;;5110168;28;19915;-71
2022/04/27 10:16:29;;;;;;;;;;;;;;;;;;5114588;28;20364;-76
2022/04/27 10:18:54;;;;;;;;;;;;;;;;;;5108007;28;19927;-72
2022/04/27 10:21:20;;;;;;;;;;;;;;;;;;5085741;28;20003;-71
2022/04/27 10:23:46;;;;;;;;;;;;;;;;;;5105304;28;19908;-72
2022/04/27 10:26:12;;;;;;;;;;;;;;;;;;5105469;28;19997;-72
2022/04/27 10:28:38;;;;;;;;;;;;;;;;;;5106705;28;19907;-72
2022/04/27 10:31:07;;;;;;;;;;;;;;;;;;5104182;28;19915;-69
2022/04/27 10:33:33;;;;;;;;;;;;;;;;;;5104244;28;19911;-69
2022/04/27 10:35:59;;;;;;;;;;;;;;;;;;5082438;28;20355;-70
2022/04/27 10:38:25;;;;;;;;;;;;;;;;;;5105046;28;19915;-71
2022/04/27 10:40:50;;;;;;;;;;;;;;;;;;5086316;28;19908;-69
2022/04/27 10:43:17;;;;;;;;;;;;;;;;;;5106052;28;20026;-75
2022/04/27 10:45:43;;;;;;;;;;;;;;;;;;5108708;28;19914;-69
2022/04/27 10:48:09;;;;;;;;;;;;;;;;;;5090178;28;19916;-71
2022/04/27 10:50:35;;;;;;;;;;;;;;;;;;5094417;28;19908;-69
2022/04/27 10:53:03;;;;;;;;;;;;;;;;;;5109699;28;20317;-73
2022/04/27 10:55:28;;;;;;;;;;;;;;;;;;5111419;28;19915;-72
2022/04/27 10:57:54;;;;;;;;;;;;;;;;;;5112242;28;19918;-73
2022/04/27 11:00:20;;;;;;;;;;;;;;;;;;5112276;28;20367;-72
2022/04/27 11:02:46;;;;;;;;;;;;;;;;;;5081672;28;19959;-70
2022/04/27 11:05:12;;;;;;;;;;;;;;;;;;5091859;28;19923;-70
2022/04/27 11:07:39;;;;;;;;;;;;;;;;;;5097182;28;19919;-70
2022/04/27 11:10:05;;;;;;;;;;;;;;;;;;5103222;28;19912;-77
2022/04/27 11:12:31;;;;;;;;;;;;;;;;;;5097271;28;20315;-70
2022/04/27 11:14:57;;;;;;;;;;;;;;;;;;5101411;28;19923;-71
2022/04/27 11:17:23;;;;;;;;;;;;;;;;;;5103891;28;19912;-71
2022/04/27 11:19:49;;;;;;;;;;;;;;;;;;5102852;28;19957;-71
2022/04/27 11:22:15;;;;;;;;;;;;;;;;;;5099544;28;19959;-71
2022/04/27 11:24:42;;;;;;;;;;;;;;;;;;5083899;28;19911;-71
2022/04/27 11:27:08;;;;;;;;;;;;;;;;;;5100785;28;19930;-72
2022/04/27 11:29:34;;;;;;;;;;;;;;;;;;5106093;28;20376;-71
2022/04/27 11:31:59;;;;;;;;;;;;;;;;;;5105124;28;19916;-70
2022/04/27 11:34:26;;;;;;;;;;;;;;;;;;5111331;28;20010;-71
2022/04/27 11:36:53;;;;;;;;;;;;;;;;;;5111940;28;19955;-70
2022/04/27 11:39:19;;;;;;;;;;;;;;;;;;5093143;28;20188;-70
2022/04/27 11:41:45;;;;;;;;;;;;;;;;;;5112047;28;19960;-68
2022/04/27 11:44:11;;;;;;;;;;;;;;;;;;5103653;28;20379;-70
2022/04/27 11:46:37;;;;;;;;;;;;;;;;;;5105364;28;19962;-72
2022/04/27 11:49:03;;;;;;;;;;;;;;;;;;5092575;28;19911;-71
2022/04/27 11:51:29;;;;;;;;;;;;;;;;;;5111934;28;19918;-72
2022/04/27 11:53:55;;;;;;;;;;;;;;;;;;5110382;28;19939;-72
2022/04/27 11:56:20;;;;;;;;;;;;;;;;;;5092408;28;20010;-71
2022/04/27 11:58:46;;;;;;;;;;;;;;;;;;5111065;28;19919;-71
2022/04/27 12:01:12;;;;;;;;;;;;;;;;;;5109919;28;19919;-71
2022/04/27 12:03:38;;;;;;;;;;;;;;;;;;5102460;28;19951;-72
2022/04/27 12:06:04;;;;;;;;;;;;;;;;;;5089723;28;19912;-72
2022/04/27 12:08:31;;;;;;;;;;;;;;;;;;5091643;28;19953;-72
2022/04/27 12:10:56;;;;;;;;;;;;;;;;;;5080368;28;19912;-72
2022/04/27 12:13:22;;;;;;;;;;;;;;;;;;5107232;28;19919;-72
2022/04/27 12:15:48;;;;;;;;;;;;;;;;;;5104707;28;19943;-72
2022/04/27 12:18:14;;;;;;;;;;;;;;;;;;5087989;28;19916;-74
2022/04/27 12:20:41;;;;;;;;;;;16.80;1.00;;;;;;5092901;28;20313;-73
2022/04/27 12:23:14;;;;;;;;;;;16.90;1.00;;;;;;5113432;28;19922;-73
2022/04/27 12:25:40;;;;;;;;;;;16.90;1.00;;;;;;5114009;28;20410;-74
2022/04/27 12:28:07;;;;;;;;;;;17.30;1.00;;;;;;5112429;28;19920;-72
2022/04/27 12:30:43;;;;;;;;;;;17.30;1.00;;;;;;5114397;28;19908;-73
2022/04/27 12:33:12;;;;;;;;;;;17.20;1.00;;;;;;5114184;28;19914;-72
2022/04/27 12:38:25;;;;;;;;;;;;;;;;;;5092729;28;19911;-72
2022/04/27 12:40:51;;;;;;;;;;;;;;;;;;5098972;28;19912;-72
2022/04/27 12:43:17;;;;;;;;;;;;;;;;;;5086436;28;19919;-72
2022/04/27 12:45:43;;;;;;;;;;;;;;;;;;5114033;28;19904;-73
2022/04/27 12:48:09;;;;;;;;;;;;;;;;;;5113492;28;19990;-72
2022/04/27 12:50:35;;;;;;;;;;;;;;;;;;5114170;28;19912;-73
2022/04/27 12:53:01;;;;;;;;;;;;;;;;;;5095965;28;20251;-72
2022/04/27 12:55:26;;;;;;;;;;;;;;;;;;5113026;28;19918;-72
2022/04/27 12:57:52;;;;;;;;;;;;;;;;;;5095591;28;19992;-72
2022/04/27 13:00:18;;;;;;;;;;;;;;;;;;5112798;28;19930;-72
2022/04/27 13:02:44;;;;;;;;;;;;;;;;;;5113623;28;19959;-73
2022/04/27 13:05:10;;;;;;;;;;;;;;;;;;5094969;28;20236;-72
2022/04/27 13:07:36;;;;;;;;;;;;;;;;;;5095761;28;19911;-73
2022/04/27 13:12:47;;;;;;;;;;;;;;;;;;5113603;28;19956;-73
2022/04/27 13:15:13;;;;;;;;;;;;;;;;;;5113195;28;19903;-72
2022/04/27 13:17:38;;;;;;;;;;;;;;;;;;5113828;28;20319;-72
2022/04/27 13:20:04;;;;;;;;;;;;;;;;;;5114062;28;19910;-72
2022/04/27 13:22:30;;;;;;;;;;;;;;;;;;5113388;28;20390;-72
2022/04/27 13:24:56;;;;;;;;;;;;;;;;;;5095421;28;19957;-72
2022/04/27 13:27:24;;;;;;;;;;;;;;;;;;5094268;28;19916;-73
2022/04/27 13:29:50;;;;;;;;;;;;;;;;;;5113756;28;19908;-73
2022/04/27 13:32:15;;;;;;;;;;;;;;;;;;5112674;28;19949;-72
2022/04/27 13:34:41;;;;;;;;;;;;;;;;;;5113908;28;20002;-73
2022/04/27 13:37:07;;;;;;;;;;;;;;;;;;5112964;28;19903;-72
2022/04/27 13:39:33;;;;;;;;;;;;;;;;;;5113543;28;20335;-73
2022/04/27 13:41:59;;;;;;;;;;;;;;;;;;5113375;28;20010;-73
2022/04/27 13:44:25;;;;;;;;;;;;;;;;;;5112290;28;19904;-72
2022/04/27 13:46:51;;;;;;;;;;;;;;;;;;5094605;28;19912;-73
2022/04/27 13:49:19;;;;;;;;;;;;;;;;;;5112441;28;19915;-72
2022/04/27 13:51:45;;;;;;;;;;;;;;;;;;5113346;28;20032;-73
2022/04/27 13:54:12;;;;;;;;;;;;;;;;;;5112720;28;19907;-72
2022/04/27 13:56:38;;;;;;;;;;;;;;;;;;5094881;28;19965;-73
2022/04/27 13:59:04;;;;;;;;;;;;;;;;;;5113526;28;20006;-73
2022/04/27 14:01:30;;;;;;;;;;;;;;;;;;5112447;28;19922;-73
2022/04/27 14:03:56;;;;;;;;;;;;;;;;;;5094651;28;20318;-75
2022/04/27 14:06:22;;;;;;;;;;;;;;;;;;5112584;28;19959;-72
2022/04/27 14:08:49;;;;;;;;;;;;;;;;;;5113139;28;19960;-73
2022/04/27 14:13:59;;;;;;;;;;;;;;;;;;5112939;28;19957;-73
2022/04/27 14:19:09;;;;;;;;;;;;;;;;;;5112226;28;20021;-71
2022/04/27 14:21:36;;;;;;;;;;;;;;;;;;5094708;28;20010;-74
2022/04/27 14:24:02;;;;;;;;;;;;;;;;;;5113071;28;19915;-74
2022/04/27 14:26:28;;;;;;;;;;;;;;;;;;5112141;28;19924;-73
2022/04/27 14:28:53;;;;;;;;;;;;;;;;;;5112687;28;19961;-75
2022/04/27 14:31:19;;;;;;;;;;;;;;;;;;5116208;28;20003;-74
2022/04/27 14:33:45;;;;;;;;;;;;;;;;;;5116686;28;19908;-74
2022/04/27 14:36:11;;;;;;;;;;;;;;;;;;5097921;28;19918;-74
2022/04/27 14:38:37;;;;;;;;;;;;;;;;;;5098497;28;19914;-75
2022/04/27 14:41:04;;;;;;;;;;;;;;;;;;5116551;28;20006;-73
2022/04/27 14:43:30;;;;;;;;;;;;;;;;;;5097633;28;20317;-74
2022/04/27 14:45:56;;;;;;;;;;;;;;;;;;5116544;28;19958;-74
2022/04/27 14:48:22;;;;;;;;;;;;;;;;;;5116127;28;19919;-74
2022/04/27 14:50:48;;;;;;;;;;;;;;;;;;5116462;28;19931;-74
2022/04/27 14:53:14;;;;;;;;;;;;;;;;;;5115763;28;20367;-74
2022/04/27 14:55:40;;;;;;;;;;;;;;;;;;5116338;28;19965;-74
2022/04/27 14:58:06;;;;;;;;;;;;;;;;;;5097729;28;19908;-74
2022/04/27 15:00:32;;;;;;;;;;;;;;;;;;5097266;28;20038;-74
2022/04/27 15:02:58;;;;;;;;;;;;;;;;;;5116223;28;19942;-74
2022/04/27 15:05:24;;;;;;;;;;;;;;;;;;5115491;28;19907;-74
2022/04/27 15:07:50;;;;;;;;;;;;;;;;;;5115865;28;20356;-74
2022/04/27 15:10:17;;;;;;;;;;;;;;;;;;5115245;28;19907;-73
2022/04/27 15:12:43;;;;;;;;;;;;;;;;;;5116117;28;20407;-74
2022/04/27 15:15:09;;;;;;;;;;;;;;;;;;5115920;28;19954;-74
2022/04/27 15:17:35;;;;;;;;;;;;;;;;;;5115257;28;19908;-73
2022/04/27 15:22:46;;;;;;;;;;;;;;;;;;5115548;28;19941;-73
2022/04/27 15:25:12;;;;;;;;;;;;;;;;;;5097298;28;19912;-74
2022/04/27 15:27:38;;;;;;;;;;;;;;;;;;5115855;28;19920;-73
2022/04/27 15:30:04;;;;;;;;;;;;;;;;;;5097250;28;19915;-73
2022/04/27 15:32:30;;;;;;;;;;;;;;;;;;5115074;28;19908;-73
2022/04/27 15:34:55;;;;;;;;;;;;;;;;;;5115692;28;20014;-73
2022/04/27 15:37:21;;;;;;;;;;;;;;;;;;5114930;28;19981;-73
2022/04/27 15:39:47;;;;;;;;;;;;;;;;;;5115479;28;19914;-73
2022/04/27 15:42:13;;;;;;;;;;;;;;;;;;5095859;28;20010;-71
2022/04/27 15:44:39;;;;;;;;;;;;;;;;;;5115312;28;19911;-73
2022/04/27 15:47:05;;;;;;;;;;;;;;;;;;5115604;28;19916;-73
2022/04/27 15:49:31;;;;;;;;;;;;;;;;;;5114583;28;19915;-73
2022/04/27 15:51:57;;;;;;;;;;;;;;;;;;5115252;28;19914;-73
2022/04/27 15:54:23;;;;;;;;;;;;;;;;;;5114598;28;19908;-73
2022/04/27 15:56:49;;;;;;;;;;;;;;;;;;5114853;28;20256;-73
2022/04/27 15:59:15;;;;;;;;;;;;;;;;;;5114913;28;20347;-72
2022/04/27 16:01:41;;;;;;;;;;;;;;;;;;5096606;28;19915;-73
2022/04/27 16:04:06;;;;;;;;;;;;;;;;;;5115078;28;19914;-73
2022/04/27 16:06:33;;;;;;;;;;;;;;;;;;5095739;28;20298;-73
2022/04/27 20:00:23;;;;;;;;;;;;;;;;;;5131049;27;19912;-80
2022/04/27 20:02:49;;;;;;;;;;;;;;;;;;5130736;28;19957;-80
2022/04/27 20:05:15;;;;;;;;;;;;;;;;;;5131119;28;19908;-80
2022/04/27 20:07:41;;;;;;;;;;;;;;;;;;5130287;28;19914;-81
2022/04/27 20:10:07;;;;;;;;;;;;;;;;;;5130666;28;19915;-80
2022/04/27 20:12:33;;;;;;;;;;;;;;;;;;5130387;28;20007;-81
2022/04/27 20:14:59;;;;;;;;;;;;;;;;;;5112642;28;19908;-80
2022/04/27 20:17:25;;;;;;;;;;;;;;;;;;5130985;28;19937;-80
2022/04/27 20:19:50;;;;;;;;;;;;;;;;;;5120445;28;19912;-80
2022/04/27 20:22:18;;;;;;;;;;;;;;;;;;5091997;28;20348;-79
2022/04/27 20:24:44;;;;;;;;;;;;;;;;;;5090819;28;20360;-79
2022/04/27 20:27:10;;;;;;;;;;;;;;;;;;5091791;28;19912;-79
2022/04/27 20:29:36;;;;;;;;;;;;;;;;;;5109186;28;19923;-79
2022/04/27 20:32:02;;;;;;;;;;;;;;;;;;5110169;28;19912;-80
2022/04/27 20:34:28;;;;;;;;;;;;;;;;;;5109916;28;19915;-80
2022/04/27 20:36:54;;;;;;;;;;;;;;;;;;5109173;28;20383;-80
2022/04/27 20:39:21;;;;;;;;;;;;;;;;;;5109727;28;19977;-81
2022/04/27 20:41:47;;;;;;;;;;;;;;;;;;5109322;28;19911;-79
2022/04/27 20:44:13;;;;;;;;;;;;;;;;;;5111840;28;19908;-79
2022/04/27 20:46:38;;;;;;;;;;;;;;;;;;5129359;28;19914;-79
2022/04/27 20:49:06;;;;;;;;;;;;;;;;;;5130069;28;20379;-79